createdAt,value
2019-05-11T00:00:59.117Z,99.90
2019-05-11T00:03:29.398Z,99.90
2019-05-11T00:05:59.784Z,99.90
2019-05-11T00:08:30.011Z,99.90
2019-05-11T00:11:00.156Z,99.90
2019-05-11T00:13:30.250Z,99.90
2019-05-11T00:16:00.323Z,99.90
2019-05-11T00:18:30.704Z,99.90
2019-05-11T00:21:00.834Z,99.90
2019-05-11T00:23:31.147Z,99.90
2019-05-11T00:26:01.282Z,99.90
2019-05-11T00:28:31.438Z,99.90
2019-05-11T00:31:01.630Z,99.90
2019-05-11T00:33:32.030Z,99.90
2019-05-11T00:36:02.239Z,99.90
2019-05-11T00:38:32.294Z,99.90
2019-05-11T00:41:02.459Z,99.90
2019-05-11T00:43:32.611Z,99.90
2019-05-11T00:46:02.844Z,99.90
2019-05-11T00:48:33.110Z,99.90
2019-05-11T00:51:03.306Z,99.90
2019-05-11T00:53:33.506Z,99.90
2019-05-11T00:56:03.635Z,99.90
2019-05-11T00:58:33.711Z,99.90
2019-05-11T01:01:03.947Z,99.90
2019-05-11T01:03:34.094Z,99.90
2019-05-11T01:06:04.318Z,99.90
2019-05-11T01:08:34.522Z,99.90
2019-05-11T01:11:05.729Z,99.90
2019-05-11T01:13:36.950Z,99.90
2019-05-11T01:16:07.114Z,99.90
2019-05-11T01:18:37.283Z,99.90
2019-05-11T01:21:07.424Z,99.90
2019-05-11T01:23:37.605Z,99.90
2019-05-11T01:26:07.776Z,99.90
2019-05-11T01:28:37.910Z,99.90
2019-05-11T01:31:08.088Z,99.90
2019-05-11T01:33:38.245Z,99.90
2019-05-11T01:36:08.372Z,99.90
2019-05-11T01:38:38.582Z,99.90
2019-05-11T01:41:08.808Z,99.90
2019-05-11T01:43:39.009Z,99.90
2019-05-11T01:46:09.154Z,99.90
2019-05-11T01:48:39.433Z,99.90
2019-05-11T01:51:09.686Z,99.90
2019-05-11T01:53:39.798Z,99.90
2019-05-11T01:56:10.058Z,99.90
2019-05-11T01:58:40.302Z,99.90
2019-05-11T02:01:10.448Z,99.90
2019-05-11T02:03:40.574Z,99.90
2019-05-11T02:06:10.721Z,99.90
2019-05-11T02:08:40.850Z,99.90
2019-05-11T02:11:15.754Z,99.90
2019-05-11T02:13:42.978Z,99.90
2019-05-11T02:16:13.204Z,99.90
2019-05-11T02:18:43.388Z,99.90
2019-05-11T02:21:13.551Z,99.90
2019-05-11T02:23:43.722Z,99.90
2019-05-11T02:26:13.987Z,99.90
2019-05-11T02:28:44.203Z,99.90
2019-05-11T02:31:14.351Z,99.90
2019-05-11T02:33:44.591Z,99.90
2019-05-11T02:36:14.803Z,99.90
2019-05-11T02:38:45.136Z,99.90
2019-05-11T02:41:33.298Z,99.90
2019-05-11T02:43:47.070Z,99.90
2019-05-11T02:46:18.234Z,99.90
2019-05-11T02:48:48.418Z,99.90
2019-05-11T02:51:18.729Z,99.90
2019-05-11T02:53:50.075Z,99.90
2019-05-11T02:56:20.234Z,99.90
2019-05-11T02:58:50.402Z,99.90
2019-05-11T03:01:20.642Z,99.90
2019-05-11T03:03:50.813Z,99.90
2019-05-11T03:06:20.941Z,99.90
2019-05-11T03:08:51.154Z,99.90
2019-05-11T03:11:21.342Z,99.90
2019-05-11T03:13:51.690Z,99.90
2019-05-11T03:16:21.829Z,99.90
2019-05-11T03:18:52.022Z,99.90
2019-05-11T03:21:22.227Z,99.90
2019-05-11T03:23:52.507Z,99.90
2019-05-11T03:26:22.687Z,99.90
2019-05-11T03:28:52.834Z,99.90
2019-05-11T03:31:23.149Z,99.90
2019-05-11T03:33:54.424Z,99.90
2019-05-11T03:36:24.758Z,99.90
2019-05-11T03:38:54.989Z,99.90
2019-05-11T03:41:25.077Z,99.90
2019-05-11T03:43:55.226Z,99.90
2019-05-11T03:46:25.503Z,99.90
2019-05-11T03:48:55.684Z,99.90
2019-05-11T03:51:25.815Z,99.90
2019-05-11T03:53:55.927Z,99.90
2019-05-11T03:56:26.027Z,99.90
2019-05-11T03:58:56.359Z,99.90
2019-05-11T04:01:26.612Z,99.90
2019-05-11T04:03:56.811Z,99.90
2019-05-11T04:06:26.975Z,99.90
2019-05-11T04:08:57.150Z,99.90
2019-05-11T04:11:27.300Z,99.90
2019-05-11T04:13:57.451Z,99.90
2019-05-11T04:16:28.692Z,99.90
2019-05-11T04:18:58.856Z,99.90
2019-05-11T04:21:29.166Z,99.90
2019-05-11T04:24:00.540Z,99.90
2019-05-11T04:26:30.707Z,99.90
2019-05-11T04:29:01.784Z,99.90
2019-05-11T04:31:32.096Z,99.90
2019-05-11T04:34:02.411Z,99.90
2019-05-11T04:36:32.676Z,99.90
2019-05-11T04:39:04.041Z,99.90
2019-05-11T04:41:34.277Z,99.90
2019-05-11T04:44:04.513Z,99.90
2019-05-11T04:46:34.774Z,99.90
2019-05-11T04:49:05.304Z,99.90
2019-05-11T04:51:35.483Z,99.90
2019-05-11T04:54:05.625Z,99.90
2019-05-11T04:56:35.805Z,99.90
2019-05-11T04:59:05.955Z,99.90
2019-05-11T05:01:36.171Z,99.90
2019-05-11T05:04:14.058Z,99.90
2019-05-11T05:06:38.988Z,99.90
2019-05-11T05:09:09.416Z,99.90
2019-05-11T05:11:39.634Z,99.90
2019-05-11T05:14:10.428Z,99.90
2019-05-11T05:16:40.676Z,99.90
2019-05-11T05:19:10.854Z,99.90
2019-05-11T05:21:41.199Z,99.90
2019-05-11T05:24:11.532Z,99.90
2019-05-11T05:26:41.787Z,99.90
2019-05-11T05:29:11.928Z,99.90
2019-05-11T05:31:42.246Z,99.90
2019-05-11T05:34:12.383Z,99.90
2019-05-11T05:36:42.705Z,99.90
2019-05-11T05:39:12.918Z,99.90
2019-05-11T05:41:43.127Z,99.90
2019-05-11T05:44:13.823Z,99.90
2019-05-11T05:46:43.953Z,99.90
2019-05-11T05:49:14.078Z,99.90
2019-05-11T05:51:44.205Z,99.90
2019-05-11T05:54:14.389Z,99.90
2019-05-11T05:56:44.572Z,99.90
2019-05-11T05:59:14.803Z,99.90
2019-05-11T06:01:45.062Z,99.90
2019-05-11T06:04:15.274Z,99.90
2019-05-11T06:06:45.399Z,99.90
2019-05-11T06:09:15.540Z,99.90
2019-05-11T06:11:46.810Z,99.90
2019-05-11T06:14:16.965Z,99.90
2019-05-11T06:16:47.111Z,99.90
2019-05-11T06:19:17.345Z,99.90
2019-05-11T06:21:47.602Z,99.90
2019-05-11T06:24:17.886Z,99.90
2019-05-11T06:26:49.125Z,99.90
2019-05-11T06:29:21.616Z,99.90
2019-05-11T06:31:51.229Z,99.90
2019-05-11T06:34:21.415Z,99.90
2019-05-11T06:36:51.652Z,99.90
2019-05-11T06:39:21.870Z,99.90
2019-05-11T06:41:51.944Z,99.90
2019-05-11T06:44:22.116Z,99.90
2019-05-11T06:46:52.269Z,99.90
2019-05-11T06:49:22.450Z,99.90
2019-05-11T06:51:52.733Z,99.90
2019-05-11T06:54:22.997Z,99.90
2019-05-11T06:56:53.225Z,99.90
2019-05-11T06:59:23.378Z,99.90
2019-05-11T07:01:53.562Z,99.90
2019-05-11T07:04:23.761Z,99.90
2019-05-11T07:06:53.965Z,99.90
2019-05-11T07:09:24.138Z,99.90
2019-05-11T07:11:54.343Z,99.90
2019-05-11T07:14:24.612Z,99.90
2019-05-11T07:16:54.769Z,99.90
2019-05-11T07:19:24.934Z,99.90
2019-05-11T07:21:56.087Z,99.90
2019-05-11T07:24:26.214Z,99.90
2019-05-11T07:26:56.416Z,99.90
2019-05-11T07:29:26.638Z,99.90
2019-05-11T07:31:59.273Z,99.90
2019-05-11T07:34:29.783Z,99.90
2019-05-11T07:36:59.905Z,99.90
2019-05-11T07:39:30.161Z,99.90
2019-05-11T07:42:00.312Z,99.90
2019-05-11T07:44:37.946Z,99.90
2019-05-11T07:47:02.246Z,99.90
2019-05-11T07:49:32.490Z,99.90
2019-05-11T07:52:02.623Z,99.90
2019-05-11T07:54:32.976Z,99.90
2019-05-11T07:57:03.155Z,99.90
2019-05-11T07:59:33.486Z,99.90
2019-05-11T08:02:03.655Z,99.90
2019-05-11T08:04:33.911Z,99.90
2019-05-11T08:07:04.151Z,99.90
2019-05-11T08:09:34.502Z,99.90
2019-05-11T08:12:04.692Z,99.90
2019-05-11T08:14:53.925Z,99.90
2019-05-11T08:17:08.600Z,99.90
2019-05-11T08:19:38.858Z,99.90
2019-05-11T08:22:09.091Z,99.90
2019-05-11T08:24:39.309Z,99.90
2019-05-11T08:27:09.528Z,99.90
2019-05-11T08:29:39.867Z,99.60
2019-05-11T08:32:10.126Z,99.00
2019-05-11T08:34:40.313Z,98.80
2019-05-11T08:37:10.597Z,98.50
2019-05-11T08:39:40.721Z,98.10
2019-05-11T08:42:10.940Z,98.20
2019-05-11T08:44:41.146Z,97.70
2019-05-11T08:47:11.374Z,96.60
2019-05-11T08:49:41.746Z,96.30
2019-05-11T08:52:11.922Z,96.10
2019-05-11T08:54:42.187Z,97.20
2019-05-11T08:57:12.382Z,97.20
2019-05-11T08:59:42.632Z,96.10
2019-05-11T09:02:12.992Z,95.50
2019-05-11T09:04:43.154Z,96.30
2019-05-11T09:07:13.560Z,97.20
2019-05-11T09:09:43.887Z,96.70
2019-05-11T09:12:14.104Z,95.70
2019-05-11T09:14:44.759Z,95.80
2019-05-11T09:17:15.118Z,94.30
2019-05-11T09:19:45.330Z,93.00
2019-05-11T09:22:15.623Z,91.90
2019-05-11T09:24:47.776Z,91.20
2019-05-11T09:27:18.372Z,91.50
2019-05-11T09:29:48.811Z,89.80
2019-05-11T09:32:19.042Z,89.60
2019-05-11T09:34:49.459Z,90.20
2019-05-11T09:37:20.835Z,88.10
2019-05-11T09:39:51.070Z,89.10
2019-05-11T09:42:21.229Z,91.70
2019-05-11T09:44:51.415Z,91.70
2019-05-11T09:47:21.678Z,92.00
2019-05-11T09:49:51.831Z,91.10
2019-05-11T09:52:22.063Z,91.60
2019-05-11T09:54:52.280Z,92.90
2019-05-11T09:57:22.446Z,92.90
2019-05-11T09:59:52.738Z,94.50
2019-05-11T10:02:22.942Z,94.50
2019-05-11T10:04:53.105Z,93.90
2019-05-11T10:07:23.288Z,93.10
2019-05-11T10:09:53.589Z,93.20
2019-05-11T10:12:23.718Z,93.70
2019-05-11T10:14:53.930Z,92.40
2019-05-11T10:17:24.354Z,93.60
2019-05-11T10:19:54.703Z,93.40
2019-05-11T10:22:24.853Z,93.20
2019-05-11T10:24:54.995Z,93.30
2019-05-11T10:27:25.226Z,92.90
2019-05-11T10:29:55.430Z,93.70
2019-05-11T10:32:25.635Z,92.80
2019-05-11T10:34:58.423Z,91.00
2019-05-11T10:37:28.886Z,90.60
2019-05-11T10:39:59.078Z,90.80
2019-05-11T10:42:29.312Z,92.40
2019-05-11T10:44:59.565Z,93.20
2019-05-11T10:47:29.807Z,92.70
2019-05-11T10:50:00.141Z,93.00
2019-05-11T10:52:30.482Z,92.30
2019-05-11T10:55:00.649Z,93.90
2019-05-11T10:57:31.053Z,94.80
2019-05-11T11:00:01.231Z,93.80
2019-05-11T11:02:31.398Z,93.50
2019-05-11T11:05:01.594Z,94.30
2019-05-11T11:07:31.881Z,94.40
2019-05-11T11:10:02.102Z,94.30
2019-05-11T11:12:32.358Z,93.70
2019-05-11T11:15:02.610Z,92.80
2019-05-11T11:17:32.782Z,92.40
2019-05-11T11:20:03.006Z,92.60
2019-05-11T11:22:39.352Z,92.60
2019-05-11T11:25:05.190Z,92.70
2019-05-11T11:27:35.434Z,92.20
2019-05-11T11:30:08.948Z,91.60
2019-05-11T11:32:38.420Z,90.80
2019-05-11T11:35:09.268Z,89.90
2019-05-11T11:37:39.639Z,89.00
2019-05-11T11:40:10.182Z,89.20
2019-05-11T11:42:40.349Z,84.60
2019-05-11T11:45:11.358Z,82.30
2019-05-11T11:47:41.620Z,84.40
2019-05-11T11:50:12.186Z,83.80
2019-05-11T11:52:45.016Z,84.70
2019-05-11T11:55:14.308Z,86.40
2019-05-11T11:57:48.443Z,87.50
2019-05-11T12:00:19.412Z,86.20
2019-05-11T12:02:49.585Z,89.90
2019-05-11T12:05:19.755Z,90.20
2019-05-11T12:07:50.849Z,90.00
2019-05-11T12:10:21.151Z,86.70
2019-05-11T12:12:51.354Z,87.70
2019-05-11T12:15:21.585Z,89.50
2019-05-11T12:17:51.820Z,87.90
2019-05-11T12:20:22.319Z,86.70
2019-05-11T12:22:52.619Z,85.80
2019-05-11T12:25:22.874Z,85.40
2019-05-11T12:27:52.979Z,85.10
2019-05-11T12:30:23.107Z,82.10
2019-05-11T12:32:53.260Z,78.90
2019-05-11T12:35:23.518Z,77.20
2019-05-11T12:37:53.734Z,80.90
2019-05-11T12:40:24.017Z,79.90
2019-05-11T12:42:54.241Z,79.10
2019-05-11T12:45:24.412Z,81.20
2019-05-11T12:47:54.550Z,79.30
2019-05-11T12:50:24.971Z,75.10
2019-05-11T12:52:58.190Z,75.00
2019-05-11T12:55:28.616Z,75.20
2019-05-11T12:57:59.046Z,75.40
2019-05-11T13:00:31.369Z,72.80
2019-05-11T13:03:02.344Z,74.40
2019-05-11T13:05:32.602Z,73.70
2019-05-11T13:08:02.807Z,74.30
2019-05-11T13:10:33.018Z,72.00
2019-05-11T13:13:03.316Z,71.40
2019-05-11T13:15:33.660Z,72.80
2019-05-11T13:18:03.882Z,70.70
2019-05-11T13:20:34.185Z,67.90
2019-05-11T13:23:04.569Z,68.70
2019-05-11T13:25:34.745Z,67.10
2019-05-11T13:28:04.947Z,64.50
2019-05-11T13:30:35.095Z,67.30
2019-05-11T13:33:05.251Z,70.60
2019-05-11T13:35:37.541Z,72.20
2019-05-11T13:38:08.691Z,70.60
2019-05-11T13:40:39.201Z,68.60
2019-05-11T13:43:09.439Z,70.70
2019-05-11T13:45:39.596Z,71.90
2019-05-11T13:48:09.791Z,70.40
2019-05-11T13:50:39.938Z,67.70
2019-05-11T13:53:10.181Z,65.80
2019-05-11T13:55:40.415Z,66.60
2019-05-11T13:58:11.954Z,63.90
2019-05-11T14:00:42.191Z,61.50
2019-05-11T14:03:12.509Z,62.20
2019-05-11T14:05:42.873Z,62.70
2019-05-11T14:08:14.262Z,62.10
2019-05-11T14:10:44.694Z,60.40
2019-05-11T14:13:14.882Z,63.10
2019-05-11T14:15:45.193Z,63.90
2019-05-11T14:18:17.732Z,66.80
2019-05-11T14:20:48.289Z,66.90
2019-05-11T14:23:19.757Z,65.90
2019-05-11T14:25:49.986Z,68.10
2019-05-11T14:28:20.155Z,70.50
2019-05-11T14:30:50.362Z,70.10
2019-05-11T14:33:20.529Z,67.60
2019-05-11T14:35:50.761Z,66.40
2019-05-11T14:38:21.026Z,65.30
2019-05-11T14:40:51.075Z,65.20
2019-05-11T14:43:21.210Z,66.80
2019-05-11T14:45:51.354Z,69.00
2019-05-11T14:48:26.711Z,67.70
2019-05-11T14:50:53.438Z,68.60
2019-05-11T14:53:23.563Z,69.90
2019-05-11T14:55:53.810Z,69.80
2019-05-11T14:58:24.015Z,70.30
2019-05-11T15:00:54.213Z,71.80
2019-05-11T15:03:24.483Z,73.30
2019-05-11T15:05:54.683Z,73.50
2019-05-11T15:08:24.978Z,73.30
2019-05-11T15:10:55.178Z,73.50
2019-05-11T15:13:25.446Z,72.00
2019-05-11T15:15:55.582Z,68.20
2019-05-11T15:18:37.976Z,69.00
2019-05-11T15:20:58.134Z,69.40
2019-05-11T15:23:28.606Z,69.50
2019-05-11T15:26:00.069Z,69.20
2019-05-11T15:28:30.313Z,68.00
2019-05-11T15:31:00.546Z,66.50
2019-05-11T15:33:30.702Z,67.70
2019-05-11T15:36:00.883Z,67.90
2019-05-11T15:38:31.091Z,68.00
2019-05-11T15:41:01.267Z,68.60
2019-05-11T15:43:31.434Z,67.70
2019-05-11T15:46:01.571Z,66.80
2019-05-11T15:48:32.104Z,69.00
2019-05-11T15:51:02.549Z,70.50
2019-05-11T15:53:32.691Z,71.10
2019-05-11T15:56:02.744Z,67.80
2019-05-11T15:58:32.996Z,68.00
2019-05-11T16:01:03.243Z,67.50
2019-05-11T16:03:33.395Z,66.70
2019-05-11T16:06:03.678Z,66.10
2019-05-11T16:08:33.841Z,67.30
2019-05-11T16:11:03.977Z,67.70
2019-05-11T16:13:34.225Z,66.90
2019-05-11T16:16:04.390Z,66.90
2019-05-11T16:18:34.586Z,65.60
2019-05-11T16:21:04.731Z,65.70
2019-05-11T16:23:34.882Z,65.80
2019-05-11T16:26:05.140Z,68.40
2019-05-11T16:28:35.323Z,68.80
2019-05-11T16:31:05.533Z,68.90
2019-05-11T16:33:35.662Z,68.60
2019-05-11T16:36:08.788Z,69.30
2019-05-11T16:38:38.155Z,71.10
2019-05-11T16:41:09.208Z,70.70
2019-05-11T16:43:39.516Z,69.50
2019-05-11T16:46:09.714Z,69.40
2019-05-11T16:48:39.946Z,69.70
2019-05-11T16:51:10.073Z,70.30
2019-05-11T16:53:40.223Z,71.50
2019-05-11T16:56:10.372Z,72.00
2019-05-11T16:58:41.095Z,73.70
2019-05-11T17:01:12.659Z,74.40
2019-05-11T17:03:42.880Z,72.80
2019-05-11T17:06:13.055Z,74.10
2019-05-11T17:08:43.229Z,73.70
2019-05-11T17:11:13.486Z,75.40
2019-05-11T17:13:43.745Z,77.00
2019-05-11T17:16:14.197Z,77.30
2019-05-11T17:18:44.581Z,77.60
2019-05-11T17:21:14.810Z,78.10
2019-05-11T17:23:45.113Z,79.80
2019-05-11T17:26:18.797Z,81.50
2019-05-11T17:28:48.984Z,80.90
2019-05-11T17:31:19.349Z,80.90
2019-05-11T17:33:49.550Z,80.90
2019-05-11T17:36:19.726Z,81.50
2019-05-11T17:38:49.916Z,82.40
2019-05-11T17:41:20.109Z,82.60
2019-05-11T17:43:50.460Z,81.50
2019-05-11T17:46:20.575Z,83.00
2019-05-11T17:48:50.724Z,84.60
2019-05-11T17:51:24.294Z,84.00
2019-05-11T17:53:52.771Z,86.00
2019-05-11T17:56:22.923Z,87.40
2019-05-11T17:58:53.132Z,88.40
2019-05-11T18:01:23.369Z,89.70
2019-05-11T18:03:54.591Z,90.70
2019-05-11T18:06:24.838Z,90.80
2019-05-11T18:08:54.987Z,91.20
2019-05-11T18:11:25.146Z,91.30
2019-05-11T18:13:55.407Z,91.40
2019-05-11T18:16:25.583Z,91.50
2019-05-11T18:18:55.859Z,91.80
2019-05-11T18:21:27.972Z,92.00
2019-05-11T18:23:57.979Z,92.10
2019-05-11T18:26:28.626Z,91.80
2019-05-11T18:28:59.026Z,92.00
2019-05-11T18:31:30.233Z,92.70
2019-05-11T18:34:00.469Z,92.80
2019-05-11T18:36:30.658Z,93.20
2019-05-11T18:39:01.019Z,93.00
2019-05-11T18:41:32.086Z,92.80
2019-05-11T18:44:02.797Z,92.50
2019-05-11T18:46:33.480Z,93.30
2019-05-11T18:49:03.903Z,94.10
2019-05-11T18:51:37.627Z,93.70
2019-05-11T18:54:09.336Z,94.30
2019-05-11T18:56:41.013Z,94.90
2019-05-11T18:59:11.889Z,95.70
2019-05-11T19:01:42.353Z,96.10
2019-05-11T19:04:12.541Z,96.60
2019-05-11T19:06:42.714Z,96.70
2019-05-11T19:09:12.999Z,97.00
2019-05-11T19:11:43.290Z,97.10
2019-05-11T19:14:13.504Z,97.30
2019-05-11T19:16:43.814Z,98.20
2019-05-11T19:19:14.005Z,98.20
2019-05-11T19:21:44.185Z,98.30
2019-05-11T19:24:14.606Z,98.60
2019-05-11T19:26:44.974Z,98.70
2019-05-11T19:29:15.126Z,99.00
2019-05-11T19:31:47.516Z,99.10
2019-05-11T19:34:17.749Z,99.20
2019-05-11T19:36:49.145Z,99.30
2019-05-11T19:39:19.534Z,99.50
2019-05-11T19:41:49.928Z,99.60
2019-05-11T19:44:20.154Z,99.90
2019-05-11T19:46:50.378Z,99.90
2019-05-11T19:49:20.537Z,99.90
2019-05-11T19:51:50.742Z,99.90
2019-05-11T19:54:20.910Z,99.90
2019-05-11T19:56:52.378Z,99.90
2019-05-11T19:59:22.688Z,99.90
2019-05-11T20:01:52.842Z,99.90
2019-05-11T20:04:23.040Z,99.90
2019-05-11T20:07:33.763Z,99.90
2019-05-11T20:10:22.971Z,99.90
2019-05-11T20:12:53.127Z,99.90
2019-05-11T20:15:23.327Z,99.90
2019-05-11T20:17:54.649Z,99.90
2019-05-11T20:20:24.914Z,99.90
2019-05-11T20:22:55.181Z,99.90
2019-05-11T20:25:25.396Z,99.90
2019-05-11T20:27:55.530Z,99.90
2019-05-11T20:30:25.689Z,99.90
2019-05-11T20:32:55.838Z,99.90
2019-05-11T20:35:28.003Z,99.90
2019-05-11T20:37:58.266Z,99.90
2019-05-11T20:40:28.749Z,99.90
2019-05-11T20:42:59.331Z,99.90
2019-05-11T20:45:29.559Z,99.90
2019-05-11T20:47:59.720Z,99.90
2019-05-11T20:50:30.074Z,99.90
2019-05-11T20:53:00.378Z,99.90
2019-05-11T20:55:30.598Z,99.90
2019-05-11T20:58:00.818Z,99.90
2019-05-11T21:00:31.040Z,99.90
2019-05-11T21:03:01.168Z,99.90
2019-05-11T21:05:31.354Z,99.90
2019-05-11T21:08:01.598Z,99.90
2019-05-11T21:10:31.881Z,99.90
2019-05-11T21:13:02.142Z,99.90
2019-05-11T21:15:32.309Z,99.90
2019-05-11T21:18:02.492Z,99.90
2019-05-11T21:20:32.665Z,99.90
2019-05-11T21:23:02.886Z,99.90
2019-05-11T21:25:33.030Z,99.90
2019-05-11T21:28:03.167Z,99.90
2019-05-11T21:30:33.299Z,99.90
2019-05-11T21:33:03.450Z,99.90
2019-05-11T21:35:33.945Z,99.90
2019-05-11T21:38:04.012Z,99.90
2019-05-11T21:40:34.250Z,99.90
2019-05-11T21:43:04.506Z,99.90
2019-05-11T21:45:37.654Z,99.90
2019-05-11T21:48:06.474Z,99.90
2019-05-11T21:50:36.671Z,99.90
2019-05-11T21:53:08.120Z,99.90
2019-05-11T21:55:38.776Z,99.90
2019-05-11T21:58:09.154Z,99.90
2019-05-11T22:00:39.468Z,99.90
2019-05-11T22:03:10.546Z,99.90
2019-05-11T22:05:40.751Z,99.90
2019-05-11T22:08:10.885Z,99.90
2019-05-11T22:10:41.019Z,99.90
2019-05-11T22:13:11.202Z,99.90
2019-05-11T22:15:42.535Z,99.90
2019-05-11T22:18:27.332Z,99.90
2019-05-11T22:20:44.541Z,99.90
2019-05-11T22:23:14.709Z,99.90
2019-05-11T22:25:44.864Z,99.90
2019-05-11T22:28:17.622Z,99.90
2019-05-11T22:30:48.381Z,99.90
2019-05-11T22:33:18.800Z,99.90
2019-05-11T22:35:48.890Z,99.90
2019-05-11T22:38:19.073Z,99.90
2019-05-11T22:40:49.395Z,99.90
2019-05-11T22:43:19.682Z,99.90
2019-05-11T22:45:49.946Z,99.90
2019-05-11T22:48:20.094Z,99.90
2019-05-11T22:50:50.646Z,99.90
2019-05-11T22:53:21.126Z,99.90
2019-05-11T22:55:51.280Z,99.90
2019-05-11T22:58:21.440Z,99.90
2019-05-11T23:00:51.590Z,99.90
2019-05-11T23:03:22.923Z,99.90
2019-05-11T23:05:53.372Z,99.90
2019-05-11T23:08:23.505Z,99.90
2019-05-11T23:10:53.641Z,99.90
2019-05-11T23:13:23.850Z,99.90
2019-05-11T23:15:54.013Z,99.90
2019-05-11T23:18:24.179Z,99.90
2019-05-11T23:20:54.327Z,99.90
2019-05-11T23:23:24.465Z,99.90
2019-05-11T23:25:54.535Z,99.90
2019-05-11T23:28:25.701Z,99.90
2019-05-11T23:30:58.126Z,99.90
2019-05-11T23:33:27.992Z,99.90
2019-05-11T23:35:58.831Z,99.90
2019-05-11T23:38:29.207Z,99.90
2019-05-11T23:40:59.363Z,99.90
2019-05-11T23:43:30.049Z,99.90
2019-05-11T23:46:00.383Z,99.90
2019-05-11T23:48:30.546Z,99.90
2019-05-11T23:51:01.701Z,99.90
2019-05-11T23:53:31.897Z,99.90
2019-05-11T23:56:02.097Z,99.90
2019-05-11T23:58:32.365Z,99.90
